메인 페이지
METAR-TAF:

METAR-TAF

공항 :

페어뱅크스, 알래스카, 미국

위도: 64-48-14N, 경도: 147-52-34W, 고도: 132m

현재 날씨관측

예보는 1 시간 6분 전, 03:53시(UTC)에 발표되었습니다.
북동6kt
온도 6°C
습도 70%
기압 999 hPa
시정: 16.1km
고도 5500ft 상공 구름 보통
고도 6000ft 상공 구름 많음
고도 7500ft 상공 흐림
약한비

METAR: PAFA 160353Z 04006KT 10SM -RA SCT055 BKN060 OVC075 06/01 A2950 RMK AO2 SLP998 P0000 T00560011

시각: 20:59 (04:59 UTC)

예보

예보는 35분 전, 04:24시(UTC)에 발표되었습니다.
예보 대상 시간: 16일 04시부터 17일 06시까지 (UTC)
북동6kt
시정: 10km
고도 5000ft 상공 구름 보통
고도 6000ft 상공 구름 많음
고도 8000ft 상공 흐림
약한소나기
16일 0700시부터 (UTC)
북북동7kt
시정: 10km
고도 2500ft 상공 구름 보통
고도 6000ft 상공 흐림
약한소나기
16일 1000시부터 (UTC)
북북동5kt
시정: 8.0km
고도 500ft 상공 구름 조금
고도 1500ft 상공 구름 보통
고도 2500ft 상공 구름 많음
약한소나기, 박무
16일 2000시부터 (UTC)
여러 방향의 바람 4kt
시정: 10km
고도 2500ft 상공 구름 보통
고도 10000ft 상공 흐림
17일 0200시부터 (UTC)
북동4kt
시정: 10km
고도 5000ft 상공 구름 보통
고도 10000ft 상공 구름 보통

TAF: PAFA 160424Z 1604/1706 04006KT P6SM -SHRA SCT050 BKN060 OVC080 FM160700 03007KT P6SM -SHRA SCT025 OVC060 FM161000 03005KT 5SM -SHRA BR FEW005 SCT015 BKN025 FM162000 VRB04KT P6SM SCT025 OVC100 FM170200 04004KT P6SM SCT050 SCT100

4,000개 이상의 공항 관측 자료 및 예보 (METAR 및 TAF 보고).

지도상에서 검색 가능한 기상관측소가 노란 점과 빨간 점으로 표시되어 있습니다.

기상관측소 명을 보려면 표시 위로 마우스를 이동하세요.

날씨 관측과 예보를 보려면 클릭하세요.

지도 변경 : 확대하려면 엑스 표시가 있는 녹색 버튼, 축소하려면 빼기 표시가 있는 녹색 버튼, 다음 페이지의 지도를 보려면 녹색 화살표를 클릭하세요.


METAR-TAF: